Sandvig, Denmark
Current Conditions -  °F | °C
As of 12:50 PM on Thursday 27 Nov 2014 (Local Time) from EKRN Reporting Station
Overcast Overcast  
Wind Chill: 33°   Ceiling: 1100
Heat Index: 41°   Visibility: 6mi
Dew Point: 37°   Wind: 14mph
Humidity: 87%   Direction: 130°SE
Pressure: 30.15"   Gusts: NA
Location:  55.28°N, 14.78°E
Report Text: EKRN 271150Z AUTO 13012KT 9999NDV OVC011/// 05/03 Q1021
Loading
Personal Weather Stations






























Interactive Weather Map New forecast layout! Learn more

10-Day Weather Forecast

Advertisements
Track Severe Weather on mobile